sensor_id;sensor_type;location;lat;lon;timestamp;P1;durP1;ratioP1;P2;durP2;ratioP2
70455;SDS011;57916;51.996;5.180;2022-08-01T00:00:06;10.02;;;5.40;;
70455;SDS011;57916;51.996;5.180;2022-08-01T00:02:38;8.40;;;5.30;;
70455;SDS011;57916;51.996;5.180;2022-08-01T00:05:06;9.80;;;5.65;;
70455;SDS011;57916;51.996;5.180;2022-08-01T00:07:34;12.15;;;5.68;;
70455;SDS011;57916;51.996;5.180;2022-08-01T00:10:03;14.10;;;6.47;;
70455;SDS011;57916;51.996;5.180;2022-08-01T00:12:30;12.13;;;6.25;;
70455;SDS011;57916;51.996;5.180;2022-08-01T00:14:57;8.98;;;6.03;;
70455;SDS011;57916;51.996;5.180;2022-08-01T00:17:24;11.10;;;6.00;;
70455;SDS011;57916;51.996;5.180;2022-08-01T00:19:51;10.63;;;6.20;;
70455;SDS011;57916;51.996;5.180;2022-08-01T00:22:18;11.60;;;6.63;;
70455;SDS011;57916;51.996;5.180;2022-08-01T00:24:45;11.40;;;6.47;;
70455;SDS011;57916;51.996;5.180;2022-08-01T00:27:11;11.15;;;6.88;;
70455;SDS011;57916;51.996;5.180;2022-08-01T00:29:38;10.80;;;6.90;;
70455;SDS011;57916;51.996;5.180;2022-08-01T00:32:25;12.52;;;7.00;;
70455;SDS011;57916;51.996;5.180;2022-08-01T00:34:52;10.80;;;6.67;;
70455;SDS011;57916;51.996;5.180;2022-08-01T00:37:19;12.52;;;6.68;;
70455;SDS011;57916;51.996;5.180;2022-08-01T00:39:46;10.63;;;6.40;;
70455;SDS011;57916;51.996;5.180;2022-08-01T00:42:13;11.43;;;6.65;;
70455;SDS011;57916;51.996;5.180;2022-08-01T00:44:40;14.82;;;6.80;;
70455;SDS011;57916;51.996;5.180;2022-08-01T00:47:07;11.88;;;6.90;;
70455;SDS011;57916;51.996;5.180;2022-08-01T00:49:34;13.20;;;7.15;;
70455;SDS011;57916;51.996;5.180;2022-08-01T00:52:02;13.68;;;7.07;;
70455;SDS011;57916;51.996;5.180;2022-08-01T00:54:31;13.63;;;7.85;;
70455;SDS011;57916;51.996;5.180;2022-08-01T00:56:58;14.80;;;8.27;;
70455;SDS011;57916;51.996;5.180;2022-08-01T00:59:26;15.85;;;7.70;;
70455;SDS011;57916;51.996;5.180;2022-08-01T01:01:53;16.92;;;8.05;;
70455;SDS011;57916;51.996;5.180;2022-08-01T01:04:21;13.80;;;8.10;;
70455;SDS011;57916;51.996;5.180;2022-08-01T01:09:44;12.27;;;7.38;;
70455;SDS011;57916;51.996;5.180;2022-08-01T01:12:29;10.05;;;6.78;;
70455;SDS011;57916;51.996;5.180;2022-08-01T01:17:35;14.57;;;6.95;;
70455;SDS011;57916;51.996;5.180;2022-08-01T01:20:17;14.03;;;7.47;;
70455;SDS011;57916;51.996;5.180;2022-08-01T01:25:51;13.30;;;7.22;;
70455;SDS011;57916;51.996;5.180;2022-08-01T01:31:55;17.05;;;8.43;;
70455;SDS011;57916;51.996;5.180;2022-08-01T01:34:25;16.35;;;8.35;;
70455;SDS011;57916;51.996;5.180;2022-08-01T01:36:54;18.48;;;8.30;;
70455;SDS011;57916;51.996;5.180;2022-08-01T01:39:24;20.40;;;8.70;;
70455;SDS011;57916;51.996;5.180;2022-08-01T01:41:53;21.83;;;8.65;;
70455;SDS011;57916;51.996;5.180;2022-08-01T01:44:22;20.30;;;8.70;;
70455;SDS011;57916;51.996;5.180;2022-08-01T01:46:50;19.40;;;8.95;;
70455;SDS011;57916;51.996;5.180;2022-08-01T01:49:19;16.40;;;8.43;;
70455;SDS011;57916;51.996;5.180;2022-08-01T01:51:50;15.90;;;8.68;;
70455;SDS011;57916;51.996;5.180;2022-08-01T01:54:29;20.95;;;9.20;;
70455;SDS011;57916;51.996;5.180;2022-08-01T01:57:00;19.17;;;9.40;;
70455;SDS011;57916;51.996;5.180;2022-08-01T01:59:31;19.00;;;8.88;;
70455;SDS011;57916;51.996;5.180;2022-08-01T02:02:02;18.27;;;8.75;;
70455;SDS011;57916;51.996;5.180;2022-08-01T02:04:32;20.02;;;9.05;;
70455;SDS011;57916;51.996;5.180;2022-08-01T02:07:04;22.63;;;9.80;;
70455;SDS011;57916;51.996;5.180;2022-08-01T02:09:35;20.00;;;8.77;;
70455;SDS011;57916;51.996;5.180;2022-08-01T02:12:04;22.23;;;9.55;;
70455;SDS011;57916;51.996;5.180;2022-08-01T02:14:34;24.30;;;9.50;;
70455;SDS011;57916;51.996;5.180;2022-08-01T02:17:02;18.90;;;9.20;;
70455;SDS011;57916;51.996;5.180;2022-08-01T02:19:32;18.02;;;8.82;;
70455;SDS011;57916;51.996;5.180;2022-08-01T02:22:11;21.13;;;8.98;;
70455;SDS011;57916;51.996;5.180;2022-08-01T02:24:50;20.83;;;9.23;;
70455;SDS011;57916;51.996;5.180;2022-08-01T02:30:29;16.48;;;8.13;;
70455;SDS011;57916;51.996;5.180;2022-08-01T02:33:02;17.45;;;8.52;;
70455;SDS011;57916;51.996;5.180;2022-08-01T02:35:35;15.77;;;7.82;;
70455;SDS011;57916;51.996;5.180;2022-08-01T02:38:27;20.20;;;8.38;;
70455;SDS011;57916;51.996;5.180;2022-08-01T02:40:58;18.02;;;8.32;;
70455;SDS011;57916;51.996;5.180;2022-08-01T02:43:30;15.38;;;7.47;;
70455;SDS011;57916;51.996;5.180;2022-08-01T02:46:01;14.82;;;7.53;;
70455;SDS011;57916;51.996;5.180;2022-08-01T02:48:30;16.90;;;8.45;;
70455;SDS011;57916;51.996;5.180;2022-08-01T02:51:01;14.77;;;7.57;;
70455;SDS011;57916;51.996;5.180;2022-08-01T02:53:31;14.38;;;7.20;;
70455;SDS011;57916;51.996;5.180;2022-08-01T02:56:10;16.52;;;6.93;;
70455;SDS011;57916;51.996;5.180;2022-08-01T02:58:39;12.90;;;6.63;;
70455;SDS011;57916;51.996;5.180;2022-08-01T03:01:08;15.35;;;6.90;;
70455;SDS011;57916;51.996;5.180;2022-08-01T03:03:36;12.13;;;6.60;;
70455;SDS011;57916;51.996;5.180;2022-08-01T03:06:04;13.05;;;7.07;;
70455;SDS011;57916;51.996;5.180;2022-08-01T03:08:32;11.65;;;6.60;;
70455;SDS011;57916;51.996;5.180;2022-08-01T03:11:01;11.40;;;6.32;;
70455;SDS011;57916;51.996;5.180;2022-08-01T03:13:29;12.35;;;6.43;;
70455;SDS011;57916;51.996;5.180;2022-08-01T03:15:59;11.70;;;6.43;;
70455;SDS011;57916;51.996;5.180;2022-08-01T03:18:28;13.52;;;6.35;;
70455;SDS011;57916;51.996;5.180;2022-08-01T03:20:56;11.40;;;5.93;;
70455;SDS011;57916;51.996;5.180;2022-08-01T03:23:27;11.63;;;5.95;;
70455;SDS011;57916;51.996;5.180;2022-08-01T03:26:03;10.50;;;5.57;;
70455;SDS011;57916;51.996;5.180;2022-08-01T03:28:32;10.30;;;6.25;;
70455;SDS011;57916;51.996;5.180;2022-08-01T03:30:59;11.40;;;5.67;;
70455;SDS011;57916;51.996;5.180;2022-08-01T03:33:28;9.18;;;6.15;;
70455;SDS011;57916;51.996;5.180;2022-08-01T03:35:55;10.38;;;5.63;;
70455;SDS011;57916;51.996;5.180;2022-08-01T03:38:24;10.60;;;6.20;;
70455;SDS011;57916;51.996;5.180;2022-08-01T03:40:54;8.57;;;5.30;;
70455;SDS011;57916;51.996;5.180;2022-08-01T03:43:32;8.73;;;5.00;;
70455;SDS011;57916;51.996;5.180;2022-08-01T03:46:07;9.82;;;5.28;;
70455;SDS011;57916;51.996;5.180;2022-08-01T03:48:40;7.65;;;4.55;;
70455;SDS011;57916;51.996;5.180;2022-08-01T03:51:13;6.75;;;4.85;;
70455;SDS011;57916;51.996;5.180;2022-08-01T03:53:41;7.28;;;4.55;;
70455;SDS011;57916;51.996;5.180;2022-08-01T03:56:10;7.57;;;4.40;;
70455;SDS011;57916;51.996;5.180;2022-08-01T03:58:39;7.53;;;4.38;;
70455;SDS011;57916;51.996;5.180;2022-08-01T04:01:08;7.22;;;4.38;;
70455;SDS011;57916;51.996;5.180;2022-08-01T04:03:41;8.13;;;5.07;;
70455;SDS011;57916;51.996;5.180;2022-08-01T04:06:09;10.90;;;5.03;;
70455;SDS011;57916;51.996;5.180;2022-08-01T04:08:37;8.93;;;5.18;;
70455;SDS011;57916;51.996;5.180;2022-08-01T04:11:05;9.55;;;5.45;;
70455;SDS011;57916;51.996;5.180;2022-08-01T04:13:33;6.53;;;4.75;;
70455;SDS011;57916;51.996;5.180;2022-08-01T04:16:02;10.05;;;5.50;;
70455;SDS011;57916;51.996;5.180;2022-08-01T04:18:29;8.55;;;5.25;;
70455;SDS011;57916;51.996;5.180;2022-08-01T04:20:56;9.82;;;5.30;;
70455;SDS011;57916;51.996;5.180;2022-08-01T04:23:24;11.05;;;5.40;;
70455;SDS011;57916;51.996;5.180;2022-08-01T04:25:53;9.88;;;5.30;;
70455;SDS011;57916;51.996;5.180;2022-08-01T04:28:21;8.38;;;5.28;;
70455;SDS011;57916;51.996;5.180;2022-08-01T04:30:50;8.30;;;5.30;;
70455;SDS011;57916;51.996;5.180;2022-08-01T04:33:26;7.53;;;5.30;;
70455;SDS011;57916;51.996;5.180;2022-08-01T04:35:56;9.73;;;5.43;;
70455;SDS011;57916;51.996;5.180;2022-08-01T04:38:29;9.82;;;5.57;;
70455;SDS011;57916;51.996;5.180;2022-08-01T04:40:59;10.00;;;5.43;;
70455;SDS011;57916;51.996;5.180;2022-08-01T04:43:34;7.20;;;5.07;;
70455;SDS011;57916;51.996;5.180;2022-08-01T04:46:07;8.50;;;5.00;;
70455;SDS011;57916;51.996;5.180;2022-08-01T04:48:36;8.53;;;5.07;;
70455;SDS011;57916;51.996;5.180;2022-08-01T04:51:10;10.52;;;4.95;;
70455;SDS011;57916;51.996;5.180;2022-08-01T04:53:42;9.57;;;5.10;;
70455;SDS011;57916;51.996;5.180;2022-08-01T04:56:14;7.13;;;4.82;;
70455;SDS011;57916;51.996;5.180;2022-08-01T04:58:41;8.00;;;4.90;;
70455;SDS011;57916;51.996;5.180;2022-08-01T05:01:09;7.55;;;4.75;;
70455;SDS011;57916;51.996;5.180;2022-08-01T05:03:37;8.57;;;5.05;;
70455;SDS011;57916;51.996;5.180;2022-08-01T05:06:04;6.85;;;4.68;;
70455;SDS011;57916;51.996;5.180;2022-08-01T05:08:31;7.68;;;4.70;;
70455;SDS011;57916;51.996;5.180;2022-08-01T05:10:58;5.43;;;4.70;;
70455;SDS011;57916;51.996;5.180;2022-08-01T05:13:25;10.38;;;4.78;;
70455;SDS011;57916;51.996;5.180;2022-08-01T05:15:52;7.03;;;5.10;;
70455;SDS011;57916;51.996;5.180;2022-08-01T05:18:19;9.37;;;4.80;;
70455;SDS011;57916;51.996;5.180;2022-08-01T05:20:54;7.90;;;4.97;;
70455;SDS011;57916;51.996;5.180;2022-08-01T05:23:21;7.82;;;4.80;;
70455;SDS011;57916;51.996;5.180;2022-08-01T05:26:08;8.50;;;5.32;;
70455;SDS011;57916;51.996;5.180;2022-08-01T05:28:35;7.00;;;4.90;;
70455;SDS011;57916;51.996;5.180;2022-08-01T05:31:02;9.68;;;5.07;;
70455;SDS011;57916;51.996;5.180;2022-08-01T05:33:30;8.32;;;4.70;;
70455;SDS011;57916;51.996;5.180;2022-08-01T05:35:57;8.18;;;5.13;;
70455;SDS011;57916;51.996;5.180;2022-08-01T05:38:23;8.82;;;5.15;;
70455;SDS011;57916;51.996;5.180;2022-08-01T05:40:50;8.38;;;4.90;;
70455;SDS011;57916;51.996;5.180;2022-08-01T05:43:17;9.63;;;5.30;;
70455;SDS011;57916;51.996;5.180;2022-08-01T05:45:44;8.77;;;5.20;;
70455;SDS011;57916;51.996;5.180;2022-08-01T05:48:12;6.90;;;4.88;;
70455;SDS011;57916;51.996;5.180;2022-08-01T05:50:39;7.38;;;4.70;;
70455;SDS011;57916;51.996;5.180;2022-08-01T05:53:06;6.80;;;4.40;;
70455;SDS011;57916;51.996;5.180;2022-08-01T05:55:32;7.50;;;4.90;;
70455;SDS011;57916;51.996;5.180;2022-08-01T05:58:01;12.27;;;4.50;;
70455;SDS011;57916;51.996;5.180;2022-08-01T06:00:28;4.10;;;2.63;;
70455;SDS011;57916;51.996;5.180;2022-08-01T06:02:55;3.97;;;2.00;;
70455;SDS011;57916;51.996;5.180;2022-08-01T06:05:22;3.33;;;1.70;;
70455;SDS011;57916;51.996;5.180;2022-08-01T06:07:49;2.85;;;1.60;;
70455;SDS011;57916;51.996;5.180;2022-08-01T06:10:16;1.60;;;1.50;;
70455;SDS011;57916;51.996;5.180;2022-08-01T06:12:43;1.40;;;1.27;;
70455;SDS011;57916;51.996;5.180;2022-08-01T06:15:10;1.38;;;1.27;;
70455;SDS011;57916;51.996;5.180;2022-08-01T06:17:37;4.90;;;1.40;;
70455;SDS011;57916;51.996;5.180;2022-08-01T06:20:05;1.50;;;1.40;;
70455;SDS011;57916;51.996;5.180;2022-08-01T06:22:32;6.05;;;1.60;;
70455;SDS011;57916;51.996;5.180;2022-08-01T06:24:59;5.75;;;1.75;;
70455;SDS011;57916;51.996;5.180;2022-08-01T06:27:26;5.82;;;1.60;;
70455;SDS011;57916;51.996;5.180;2022-08-01T06:29:53;3.05;;;1.50;;
70455;SDS011;57916;51.996;5.180;2022-08-01T06:32:21;3.70;;;1.85;;
70455;SDS011;57916;51.996;5.180;2022-08-01T06:34:53;5.85;;;1.60;;
70455;SDS011;57916;51.996;5.180;2022-08-01T06:37:21;7.95;;;1.90;;
70455;SDS011;57916;51.996;5.180;2022-08-01T06:39:49;6.95;;;1.88;;
70455;SDS011;57916;51.996;5.180;2022-08-01T06:42:16;3.17;;;1.63;;
70455;SDS011;57916;51.996;5.180;2022-08-01T06:44:44;3.42;;;1.58;;
70455;SDS011;57916;51.996;5.180;2022-08-01T06:47:10;11.40;;;1.63;;
70455;SDS011;57916;51.996;5.180;2022-08-01T06:49:38;9.27;;;1.80;;
70455;SDS011;57916;51.996;5.180;2022-08-01T06:52:05;6.93;;;1.50;;
70455;SDS011;57916;51.996;5.180;2022-08-01T06:54:32;4.05;;;1.40;;
70455;SDS011;57916;51.996;5.180;2022-08-01T06:56:59;1.30;;;1.20;;
70455;SDS011;57916;51.996;5.180;2022-08-01T06:59:26;1.10;;;1.10;;
70455;SDS011;57916;51.996;5.180;2022-08-01T07:01:53;1.20;;;1.20;;
70455;SDS011;57916;51.996;5.180;2022-08-01T07:04:20;1.85;;;1.08;;
70455;SDS011;57916;51.996;5.180;2022-08-01T07:06:48;1.80;;;1.10;;
70455;SDS011;57916;51.996;5.180;2022-08-01T07:09:14;1.08;;;1.08;;
70455;SDS011;57916;51.996;5.180;2022-08-01T07:11:41;1.00;;;1.00;;
70455;SDS011;57916;51.996;5.180;2022-08-01T07:14:08;1.00;;;1.00;;
70455;SDS011;57916;51.996;5.180;2022-08-01T07:16:35;1.23;;;1.17;;
70455;SDS011;57916;51.996;5.180;2022-08-01T07:19:02;1.05;;;1.05;;
70455;SDS011;57916;51.996;5.180;2022-08-01T07:21:29;1.15;;;1.13;;
70455;SDS011;57916;51.996;5.180;2022-08-01T07:24:07;1.60;;;1.00;;
70455;SDS011;57916;51.996;5.180;2022-08-01T07:26:43;0.93;;;0.90;;
70455;SDS011;57916;51.996;5.180;2022-08-01T07:29:23;1.45;;;0.95;;
70455;SDS011;57916;51.996;5.180;2022-08-01T07:31:51;1.10;;;0.90;;
70455;SDS011;57916;51.996;5.180;2022-08-01T07:34:19;1.30;;;1.20;;
70455;SDS011;57916;51.996;5.180;2022-08-01T07:36:46;2.40;;;1.10;;
70455;SDS011;57916;51.996;5.180;2022-08-01T07:39:13;1.30;;;1.00;;
70455;SDS011;57916;51.996;5.180;2022-08-01T07:41:40;4.30;;;1.50;;
70455;SDS011;57916;51.996;5.180;2022-08-01T07:44:27;1.00;;;1.00;;
70455;SDS011;57916;51.996;5.180;2022-08-01T07:46:54;1.35;;;1.25;;
70455;SDS011;57916;51.996;5.180;2022-08-01T07:49:21;2.53;;;1.30;;
70455;SDS011;57916;51.996;5.180;2022-08-01T07:51:48;1.50;;;1.40;;
70455;SDS011;57916;51.996;5.180;2022-08-01T07:54:29;4.15;;;1.45;;
70455;SDS011;57916;51.996;5.180;2022-08-01T07:57:00;4.85;;;2.20;;
70455;SDS011;57916;51.996;5.180;2022-08-01T07:59:29;9.77;;;2.22;;
70455;SDS011;57916;51.996;5.180;2022-08-01T08:01:56;10.27;;;2.47;;
70455;SDS011;57916;51.996;5.180;2022-08-01T08:04:23;13.60;;;2.78;;
70455;SDS011;57916;51.996;5.180;2022-08-01T08:06:50;17.45;;;2.70;;
70455;SDS011;57916;51.996;5.180;2022-08-01T08:09:19;13.70;;;2.97;;
70455;SDS011;57916;51.996;5.180;2022-08-01T08:11:46;14.80;;;2.92;;
70455;SDS011;57916;51.996;5.180;2022-08-01T08:14:17;17.52;;;3.22;;
70455;SDS011;57916;51.996;5.180;2022-08-01T08:16:44;15.27;;;2.93;;
70455;SDS011;57916;51.996;5.180;2022-08-01T08:19:12;9.50;;;2.92;;
70455;SDS011;57916;51.996;5.180;2022-08-01T08:21:39;12.73;;;2.60;;
70455;SDS011;57916;51.996;5.180;2022-08-01T08:24:07;15.38;;;3.15;;
70455;SDS011;57916;51.996;5.180;2022-08-01T08:26:56;14.52;;;2.85;;
70455;SDS011;57916;51.996;5.180;2022-08-01T08:29:24;15.52;;;2.75;;
70455;SDS011;57916;51.996;5.180;2022-08-01T08:31:53;12.70;;;3.40;;
70455;SDS011;57916;51.996;5.180;2022-08-01T08:34:22;16.75;;;2.55;;
70455;SDS011;57916;51.996;5.180;2022-08-01T08:36:50;15.18;;;3.10;;
70455;SDS011;57916;51.996;5.180;2022-08-01T08:39:17;14.00;;;3.47;;
70455;SDS011;57916;51.996;5.180;2022-08-01T08:41:46;22.10;;;3.35;;
70455;SDS011;57916;51.996;5.180;2022-08-01T08:44:15;22.92;;;3.00;;
70455;SDS011;57916;51.996;5.180;2022-08-01T08:46:45;16.95;;;3.15;;
70455;SDS011;57916;51.996;5.180;2022-08-01T08:49:18;16.30;;;3.05;;
70455;SDS011;57916;51.996;5.180;2022-08-01T08:51:50;14.80;;;3.45;;
70455;SDS011;57916;51.996;5.180;2022-08-01T08:54:20;17.73;;;2.90;;
70455;SDS011;57916;51.996;5.180;2022-08-01T08:56:57;14.10;;;2.83;;
70455;SDS011;57916;51.996;5.180;2022-08-01T08:59:25;15.32;;;3.30;;
70455;SDS011;57916;51.996;5.180;2022-08-01T09:01:53;15.85;;;2.90;;
70455;SDS011;57916;51.996;5.180;2022-08-01T09:04:20;13.05;;;2.80;;
70455;SDS011;57916;51.996;5.180;2022-08-01T09:06:52;12.15;;;2.50;;
70455;SDS011;57916;51.996;5.180;2022-08-01T09:09:20;8.73;;;2.50;;
70455;SDS011;57916;51.996;5.180;2022-08-01T09:11:47;11.85;;;2.50;;
70455;SDS011;57916;51.996;5.180;2022-08-01T09:14:23;13.27;;;2.60;;
70455;SDS011;57916;51.996;5.180;2022-08-01T09:17:01;11.82;;;2.25;;
70455;SDS011;57916;51.996;5.180;2022-08-01T09:19:43;13.80;;;2.40;;
70455;SDS011;57916;51.996;5.180;2022-08-01T09:22:12;10.50;;;2.22;;
70455;SDS011;57916;51.996;5.180;2022-08-01T09:27:31;10.35;;;2.30;;
70455;SDS011;57916;51.996;5.180;2022-08-01T09:30:12;6.73;;;2.27;;
70455;SDS011;57916;51.996;5.180;2022-08-01T09:33:07;10.18;;;2.00;;
70455;SDS011;57916;51.996;5.180;2022-08-01T09:35:53;9.23;;;2.00;;
70455;SDS011;57916;51.996;5.180;2022-08-01T09:38:24;9.93;;;2.17;;
70455;SDS011;57916;51.996;5.180;2022-08-01T09:40:56;5.03;;;1.70;;
70455;SDS011;57916;51.996;5.180;2022-08-01T09:43:28;8.73;;;1.95;;
70455;SDS011;57916;51.996;5.180;2022-08-01T09:45:57;11.15;;;2.78;;
70455;SDS011;57916;51.996;5.180;2022-08-01T09:48:25;7.80;;;1.80;;
70455;SDS011;57916;51.996;5.180;2022-08-01T09:50:56;9.57;;;1.70;;
70455;SDS011;57916;51.996;5.180;2022-08-01T09:53:48;5.20;;;1.60;;
70455;SDS011;57916;51.996;5.180;2022-08-01T09:56:19;10.50;;;1.50;;
70455;SDS011;57916;51.996;5.180;2022-08-01T09:58:51;8.57;;;1.70;;
70455;SDS011;57916;51.996;5.180;2022-08-01T10:01:26;9.30;;;1.65;;
70455;SDS011;57916;51.996;5.180;2022-08-01T10:04:10;9.70;;;2.10;;
70455;SDS011;57916;51.996;5.180;2022-08-01T10:06:41;12.50;;;1.80;;
70455;SDS011;57916;51.996;5.180;2022-08-01T10:09:11;6.45;;;1.83;;
70455;SDS011;57916;51.996;5.180;2022-08-01T10:11:40;9.90;;;2.13;;
70455;SDS011;57916;51.996;5.180;2022-08-01T10:14:10;9.85;;;1.88;;
70455;SDS011;57916;51.996;5.180;2022-08-01T10:16:43;8.13;;;1.60;;
70455;SDS011;57916;51.996;5.180;2022-08-01T10:19:20;12.25;;;2.28;;
70455;SDS011;57916;51.996;5.180;2022-08-01T10:21:52;7.05;;;1.65;;
70455;SDS011;57916;51.996;5.180;2022-08-01T10:24:25;6.97;;;1.70;;
70455;SDS011;57916;51.996;5.180;2022-08-01T10:26:58;5.10;;;1.73;;
70455;SDS011;57916;51.996;5.180;2022-08-01T10:32:29;8.27;;;1.70;;
70455;SDS011;57916;51.996;5.180;2022-08-01T10:34:58;10.13;;;1.75;;
70455;SDS011;57916;51.996;5.180;2022-08-01T10:37:33;9.75;;;1.80;;
70455;SDS011;57916;51.996;5.180;2022-08-01T10:40:18;12.30;;;2.15;;
70455;SDS011;57916;51.996;5.180;2022-08-01T10:42:56;8.03;;;1.70;;
70455;SDS011;57916;51.996;5.180;2022-08-01T10:45:24;8.35;;;1.40;;
70455;SDS011;57916;51.996;5.180;2022-08-01T10:58:29;5.38;;;1.20;;
70455;SDS011;57916;51.996;5.180;2022-08-01T11:01:13;3.90;;;1.20;;
70455;SDS011;57916;51.996;5.180;2022-08-01T11:03:41;7.28;;;1.60;;
70455;SDS011;57916;51.996;5.180;2022-08-01T11:09:01;5.10;;;1.30;;
70455;SDS011;57916;51.996;5.180;2022-08-01T11:11:57;5.55;;;1.50;;
70455;SDS011;57916;51.996;5.180;2022-08-01T11:17:32;6.40;;;1.50;;
70455;SDS011;57916;51.996;5.180;2022-08-01T11:20:12;5.50;;;1.80;;
70455;SDS011;57916;51.996;5.180;2022-08-01T11:26:15;7.78;;;1.33;;
70455;SDS011;57916;51.996;5.180;2022-08-01T11:28:35;4.38;;;1.27;;
70455;SDS011;57916;51.996;5.180;2022-08-01T11:41:27;6.80;;;1.23;;
70455;SDS011;57916;51.996;5.180;2022-08-01T11:44:14;7.82;;;1.75;;
70455;SDS011;57916;51.996;5.180;2022-08-01T11:46:50;3.22;;;1.15;;
70455;SDS011;57916;51.996;5.180;2022-08-01T11:52:08;5.85;;;1.45;;
70455;SDS011;57916;51.996;5.180;2022-08-01T11:57:18;4.82;;;1.48;;
70455;SDS011;57916;51.996;5.180;2022-08-01T11:59:49;7.35;;;1.60;;
70455;SDS011;57916;51.996;5.180;2022-08-01T12:02:38;5.43;;;1.27;;
70455;SDS011;57916;51.996;5.180;2022-08-01T12:05:06;6.32;;;1.70;;
70455;SDS011;57916;51.996;5.180;2022-08-01T12:07:37;6.63;;;1.40;;
70455;SDS011;57916;51.996;5.180;2022-08-01T12:12:33;5.47;;;1.50;;
70455;SDS011;57916;51.996;5.180;2022-08-01T12:15:02;10.23;;;1.35;;
70455;SDS011;57916;51.996;5.180;2022-08-01T12:17:44;6.20;;;1.17;;
70455;SDS011;57916;51.996;5.180;2022-08-01T12:20:25;12.65;;;1.48;;
70455;SDS011;57916;51.996;5.180;2022-08-01T12:22:56;7.15;;;1.38;;
70455;SDS011;57916;51.996;5.180;2022-08-01T12:25:25;4.32;;;1.08;;
70455;SDS011;57916;51.996;5.180;2022-08-01T12:27:52;3.87;;;1.13;;
70455;SDS011;57916;51.996;5.180;2022-08-01T12:30:22;5.15;;;1.25;;
70455;SDS011;57916;51.996;5.180;2022-08-01T12:32:51;3.78;;;1.00;;
70455;SDS011;57916;51.996;5.180;2022-08-01T12:35:20;4.05;;;1.00;;
70455;SDS011;57916;51.996;5.180;2022-08-01T12:37:50;4.72;;;1.05;;
70455;SDS011;57916;51.996;5.180;2022-08-01T12:40:23;4.18;;;1.00;;
70455;SDS011;57916;51.996;5.180;2022-08-01T12:42:53;5.32;;;0.80;;
70455;SDS011;57916;51.996;5.180;2022-08-01T12:45:25;2.40;;;0.80;;
70455;SDS011;57916;51.996;5.180;2022-08-01T12:48:21;4.53;;;1.08;;
70455;SDS011;57916;51.996;5.180;2022-08-01T12:50:48;4.82;;;1.00;;
70455;SDS011;57916;51.996;5.180;2022-08-01T12:53:18;2.70;;;0.90;;
70455;SDS011;57916;51.996;5.180;2022-08-01T12:55:51;3.40;;;0.90;;
70455;SDS011;57916;51.996;5.180;2022-08-01T12:58:29;2.25;;;0.80;;
70455;SDS011;57916;51.996;5.180;2022-08-01T13:01:02;3.33;;;1.00;;
70455;SDS011;57916;51.996;5.180;2022-08-01T13:03:31;6.25;;;1.02;;
70455;SDS011;57916;51.996;5.180;2022-08-01T13:05:59;6.00;;;0.90;;
70455;SDS011;57916;51.996;5.180;2022-08-01T13:08:30;2.40;;;0.80;;
70455;SDS011;57916;51.996;5.180;2022-08-01T13:11:00;4.23;;;1.17;;
70455;SDS011;57916;51.996;5.180;2022-08-01T13:13:38;3.03;;;1.10;;
70455;SDS011;57916;51.996;5.180;2022-08-01T13:16:10;2.95;;;0.90;;
70455;SDS011;57916;51.996;5.180;2022-08-01T13:18:57;2.75;;;0.90;;
70455;SDS011;57916;51.996;5.180;2022-08-01T13:21:27;3.47;;;0.80;;
70455;SDS011;57916;51.996;5.180;2022-08-01T13:24:15;9.50;;;1.10;;
70455;SDS011;57916;51.996;5.180;2022-08-01T13:29:31;3.17;;;0.77;;
70455;SDS011;57916;51.996;5.180;2022-08-01T13:32:00;3.30;;;0.90;;
70455;SDS011;57916;51.996;5.180;2022-08-01T13:35:04;3.83;;;0.85;;
70455;SDS011;57916;51.996;5.180;2022-08-01T13:37:34;3.03;;;0.73;;
70455;SDS011;57916;51.996;5.180;2022-08-01T13:40:04;3.00;;;0.90;;
70455;SDS011;57916;51.996;5.180;2022-08-01T13:42:34;2.88;;;0.80;;
70455;SDS011;57916;51.996;5.180;2022-08-01T13:45:02;3.83;;;1.00;;
70455;SDS011;57916;51.996;5.180;2022-08-01T13:47:40;1.40;;;0.60;;
70455;SDS011;57916;51.996;5.180;2022-08-01T13:50:27;5.35;;;0.77;;
70455;SDS011;57916;51.996;5.180;2022-08-01T13:52:54;3.20;;;0.80;;
70455;SDS011;57916;51.996;5.180;2022-08-01T13:55:21;1.67;;;0.70;;
70455;SDS011;57916;51.996;5.180;2022-08-01T13:57:48;5.78;;;1.10;;
70455;SDS011;57916;51.996;5.180;2022-08-01T14:00:16;4.00;;;0.90;;
70455;SDS011;57916;51.996;5.180;2022-08-01T14:02:43;1.80;;;0.70;;
70455;SDS011;57916;51.996;5.180;2022-08-01T14:05:10;1.83;;;1.00;;
70455;SDS011;57916;51.996;5.180;2022-08-01T14:07:37;1.75;;;0.70;;
70455;SDS011;57916;51.996;5.180;2022-08-01T14:10:06;3.30;;;0.85;;
70455;SDS011;57916;51.996;5.180;2022-08-01T14:12:46;2.92;;;0.85;;
70455;SDS011;57916;51.996;5.180;2022-08-01T14:15:14;3.40;;;0.82;;
70455;SDS011;57916;51.996;5.180;2022-08-01T14:18:01;2.13;;;1.00;;
70455;SDS011;57916;51.996;5.180;2022-08-01T14:20:31;1.75;;;0.65;;
70455;SDS011;57916;51.996;5.180;2022-08-01T14:22:59;3.85;;;0.82;;
70455;SDS011;57916;51.996;5.180;2022-08-01T14:25:25;6.60;;;0.90;;
70455;SDS011;57916;51.996;5.180;2022-08-01T14:28:12;1.40;;;0.70;;
70455;SDS011;57916;51.996;5.180;2022-08-01T14:30:40;3.25;;;0.73;;
70455;SDS011;57916;51.996;5.180;2022-08-01T14:33:10;3.78;;;0.90;;
70455;SDS011;57916;51.996;5.180;2022-08-01T14:35:37;1.77;;;0.80;;
70455;SDS011;57916;51.996;5.180;2022-08-01T14:38:25;2.55;;;0.70;;
70455;SDS011;57916;51.996;5.180;2022-08-01T14:40:58;2.10;;;0.90;;
70455;SDS011;57916;51.996;5.180;2022-08-01T14:43:25;2.00;;;0.80;;
70455;SDS011;57916;51.996;5.180;2022-08-01T14:45:59;2.87;;;0.80;;
70455;SDS011;57916;51.996;5.180;2022-08-01T14:48:30;2.40;;;0.77;;
70455;SDS011;57916;51.996;5.180;2022-08-01T14:50:58;1.80;;;0.70;;
70455;SDS011;57916;51.996;5.180;2022-08-01T14:53:28;2.92;;;0.80;;
70455;SDS011;57916;51.996;5.180;2022-08-01T14:55:56;2.85;;;0.75;;
70455;SDS011;57916;51.996;5.180;2022-08-01T14:58:23;1.58;;;0.60;;
70455;SDS011;57916;51.996;5.180;2022-08-01T15:00:50;1.45;;;0.70;;
70455;SDS011;57916;51.996;5.180;2022-08-01T15:03:24;2.45;;;0.80;;
70455;SDS011;57916;51.996;5.180;2022-08-01T15:05:51;1.45;;;0.88;;
70455;SDS011;57916;51.996;5.180;2022-08-01T15:08:18;2.03;;;0.70;;
70455;SDS011;57916;51.996;5.180;2022-08-01T15:10:45;3.88;;;0.80;;
70455;SDS011;57916;51.996;5.180;2022-08-01T15:13:12;2.25;;;0.80;;
70455;SDS011;57916;51.996;5.180;2022-08-01T15:15:39;2.25;;;0.70;;
70455;SDS011;57916;51.996;5.180;2022-08-01T15:18:06;1.67;;;0.70;;
70455;SDS011;57916;51.996;5.180;2022-08-01T15:20:33;3.00;;;0.60;;
70455;SDS011;57916;51.996;5.180;2022-08-01T15:23:00;4.18;;;0.98;;
70455;SDS011;57916;51.996;5.180;2022-08-01T15:25:27;3.08;;;0.70;;
70455;SDS011;57916;51.996;5.180;2022-08-01T15:28:10;2.10;;;0.90;;
70455;SDS011;57916;51.996;5.180;2022-08-01T15:30:38;3.20;;;0.90;;
70455;SDS011;57916;51.996;5.180;2022-08-01T15:33:05;5.32;;;0.90;;
70455;SDS011;57916;51.996;5.180;2022-08-01T15:35:32;3.35;;;0.93;;
70455;SDS011;57916;51.996;5.180;2022-08-01T15:37:59;3.97;;;0.85;;
70455;SDS011;57916;51.996;5.180;2022-08-01T15:40:26;2.20;;;0.90;;
70455;SDS011;57916;51.996;5.180;2022-08-01T15:42:54;2.22;;;0.70;;
70455;SDS011;57916;51.996;5.180;2022-08-01T15:45:21;1.60;;;0.68;;
70455;SDS011;57916;51.996;5.180;2022-08-01T15:48:08;6.07;;;0.80;;
70455;SDS011;57916;51.996;5.180;2022-08-01T15:50:35;2.17;;;0.77;;
70455;SDS011;57916;51.996;5.180;2022-08-01T15:53:04;4.93;;;0.80;;
70455;SDS011;57916;51.996;5.180;2022-08-01T15:55:34;6.00;;;1.60;;
70455;SDS011;57916;51.996;5.180;2022-08-01T15:58:03;3.70;;;0.80;;
70455;SDS011;57916;51.996;5.180;2022-08-01T16:00:31;2.70;;;0.75;;
70455;SDS011;57916;51.996;5.180;2022-08-01T16:03:04;2.55;;;0.90;;
70455;SDS011;57916;51.996;5.180;2022-08-01T16:05:32;3.28;;;0.90;;